Time;durP1;ratioP1;P1;durP2;ratioP2;P2;SDS_P1;SDS_P2;PMS_P1;PMS_P2;Temp;Humidity;BMP_temperature;BMP_pressure;BME280_temperature;BME280_humidity;BME280_pressure;Samples;Min_cycle;Max_cycle;Signal;HPM_P1;HPM_P2
2021/03/15 00:01:18;;;;;;;19.47;6.43;;;;;;;5.95;70.34;100551.47;6168588;28;20238;-56
2021/03/15 00:04:40;;;;;;;13.77;4.20;;;;;;;5.69;71.08;100555.59;6167480;28;20307;-57
2021/03/15 00:08:00;;;;;;;14.77;4.90;;;;;;;5.47;72.03;100549.44;6168263;28;20834;-52
2021/03/15 00:11:20;;;;;;;17.50;5.60;;;;;;;5.56;72.69;100558.97;6170053;28;20604;-54
2021/03/15 00:14:41;;;;;;;15.60;5.20;;;;;;;6.21;70.40;100562.84;6168284;28;20278;-57
2021/03/15 00:18:02;;;;;;;15.70;5.20;;;;;;;6.37;69.96;100560.31;6125510;28;20227;-54
2021/03/15 00:21:23;;;;;;;10.43;3.37;;;;;;;6.33;67.93;100548.25;6168247;28;20231;-55
2021/03/15 00:24:44;;;;;;;13.70;3.57;;;;;;;5.55;69.68;100549.50;6156608;28;20242;-51
2021/03/15 00:28:04;;;;;;;10.40;3.93;;;;;;;5.94;70.00;100545.44;6159603;28;20893;-51
2021/03/15 00:31:25;;;;;;;14.37;4.30;;;;;;;5.44;71.31;100545.97;6163080;28;20586;-53
2021/03/15 00:34:46;;;;;;;10.77;3.73;;;;;;;5.17;71.88;100542.28;6166884;28;20242;-56
2021/03/15 00:38:08;;;;;;;11.83;4.37;;;;;;;4.92;73.87;100538.63;6166638;28;20238;-53
2021/03/15 00:41:28;;;;;;;15.97;5.70;;;;;;;5.21;73.07;100528.56;6169132;28;20234;-54
2021/03/15 00:44:49;;;;;;;13.27;4.40;;;;;;;5.05;73.76;100537.91;6169115;28;20250;-52
2021/03/15 00:48:09;;;;;;;20.63;5.20;;;;;;;5.33;73.24;100530.38;6165992;28;20230;-57
2021/03/15 00:51:29;;;;;;;13.67;5.13;;;;;;;5.55;72.14;100540.88;6153523;28;20537;-52
2021/03/15 00:54:50;;;;;;;12.77;5.33;;;;;;;5.53;71.36;100527.97;6151836;28;20238;-55
2021/03/15 00:58:24;;;;;;;12.37;3.43;;;;;;;5.18;71.65;100530.28;6159153;28;20235;-56
2021/03/15 01:01:44;;;;;;;6.87;3.13;;;;;;;5.09;71.22;100533.63;6148822;28;20329;-57
2021/03/15 01:05:08;;;;;;;13.93;4.87;;;;;;;5.48;70.60;100532.22;6155135;28;20238;-56
2021/03/15 01:08:29;;;;;;;10.00;3.13;;;;;;;5.20;71.15;100528.56;6145794;28;20309;-53
2021/03/15 01:11:52;;;;;;;10.37;4.10;;;;;;;5.38;71.30;100528.69;6152648;28;20242;-50
2021/03/15 01:15:13;;;;;;;6.73;2.53;;;;;;;5.03;71.89;100531.84;6168628;28;20247;-54
2021/03/15 01:18:41;;;;;;;9.87;3.57;;;;;;;5.25;71.97;100520.00;6151485;28;20226;-52
2021/03/15 01:22:01;;;;;;;9.70;2.97;;;;;;;4.93;72.90;100518.00;6169403;28;20333;-57
2021/03/15 01:25:23;;;;;;;12.63;3.97;;;;;;;5.07;71.67;100512.97;6165249;28;20321;-55
2021/03/15 01:28:45;;;;;;;7.50;2.40;;;;;;;4.85;72.92;100511.06;6166389;28;20261;-56
2021/03/15 01:32:06;;;;;;;13.77;3.80;;;;;;;5.09;72.33;100495.75;6167281;28;20230;-52
2021/03/15 01:35:26;;;;;;;11.33;3.20;;;;;;;5.06;72.17;100494.88;6167521;28;20231;-53
2021/03/15 01:38:46;;;;;;;11.23;3.47;;;;;;;4.76;74.15;100480.00;6166074;28;20226;-55
2021/03/15 01:42:07;;;;;;;14.83;4.03;;;;;;;5.14;72.21;100488.06;6165907;28;20227;-54
2021/03/15 01:45:28;;;;;;;13.27;4.30;;;;;;;4.95;73.44;100474.16;6167700;28;20223;-56
2021/03/15 01:48:49;;;;;;;14.07;4.90;;;;;;;5.15;72.76;100482.03;6164796;28;20855;-57
2021/03/15 01:52:10;;;;;;;13.70;4.67;;;;;;;5.10;73.16;100470.84;6153123;28;20607;-55
2021/03/15 01:55:30;;;;;;;11.43;4.27;;;;;;;5.13;72.80;100476.00;6161208;28;20242;-55
2021/03/15 01:58:51;;;;;;;7.60;3.97;;;;;;;5.06;73.68;100484.53;6163834;28;20356;-53
2021/03/15 02:02:12;;;;;;;15.97;4.87;;;;;;;5.07;73.78;100486.28;6166955;28;20230;-56
2021/03/15 02:05:34;;;;;;;10.47;4.27;;;;;;;5.18;74.11;100476.06;6167411;28;20405;-52
2021/03/15 02:08:55;;;;;;;11.57;4.13;;;;;;;5.18;73.73;100473.47;6137907;28;20580;-57
2021/03/15 02:12:28;;;;;;;14.97;5.00;;;;;;;4.98;74.04;100475.88;6166407;28;20233;-54
2021/03/15 02:15:58;;;;;;;14.37;6.53;;;;;;;5.50;73.00;100460.78;6166999;28;20230;-56
2021/03/15 02:19:49;;;;;;;17.37;4.70;;;;;;;5.03;73.96;100459.59;6164154;28;20830;-52
2021/03/15 02:23:15;;;;;;;15.60;4.33;;;;;;;5.30;73.55;100458.91;6166380;28;20222;-55
2021/03/15 02:27:26;;;;;;;13.97;5.23;;;;;;;5.15;73.63;100460.53;6166234;28;20227;-53
2021/03/15 02:31:14;;;;;;;13.97;4.57;;;;;;;5.24;73.38;100458.88;6140213;28;20529;-53
2021/03/15 02:34:50;;;;;;;12.43;5.10;;;;;;;5.25;73.69;100455.47;6165904;28;20234;-56
2021/03/15 02:38:13;;;;;;;8.70;4.00;;;;;;;5.09;74.16;100451.03;6164795;28;20238;-56
2021/03/15 02:41:36;;;;;;;14.97;5.33;;;;;;;5.13;73.89;100440.72;6161337;28;20230;-58
2021/03/15 02:44:58;;;;;;;15.00;5.00;;;;;;;5.04;74.36;100450.13;6152706;28;20299;-56
2021/03/15 02:48:22;;;;;;;10.63;4.47;;;;;;;4.85;74.89;100454.28;6165724;28;20231;-50
2021/03/15 02:51:46;;;;;;;8.90;4.40;;;;;;;4.89;75.07;100441.41;6162889;28;20239;-54
2021/03/15 02:55:09;;;;;;;14.97;4.07;;;;;;;5.21;74.15;100435.63;6159508;28;20322;-54
2021/03/15 02:58:32;;;;;;;14.47;4.33;;;;;;;5.15;73.85;100432.16;6164157;28;20230;-55
2021/03/15 03:01:55;;;;;;;15.30;5.17;;;;;;;5.02;75.13;100441.50;6161375;28;20226;-51
2021/03/15 03:05:17;;;;;;;10.27;4.30;;;;;;;5.02;74.24;100426.91;6163023;28;20242;-55
2021/03/15 03:08:39;;;;;;;9.93;4.90;;;;;;;4.93;74.88;100438.00;6152708;28;20222;-56
2021/03/15 03:12:01;;;;;;;12.37;5.23;;;;;;;4.85;75.48;100433.66;6158945;28;20265;-51
2021/03/15 03:15:24;;;;;;;15.50;5.73;;;;;;;5.03;74.82;100420.88;6166072;28;20456;-55
2021/03/15 03:18:49;;;;;;;13.47;6.40;;;;;;;5.17;74.03;100423.53;6159936;28;20226;-51
2021/03/15 03:22:13;;;;;;;12.13;5.53;;;;;;;4.84;75.10;100427.59;6142613;28;20231;-56
2021/03/15 03:25:35;;;;;;;12.73;7.03;;;;;;;4.70;75.51;100436.94;6161190;28;20247;-51
2021/03/15 03:28:58;;;;;;;12.43;6.63;;;;;;;5.10;74.66;100425.22;6159780;28;20250;-55
2021/03/15 03:32:20;;;;;;;21.87;8.50;;;;;;;5.12;74.66;100438.16;6157678;28;20226;-58
2021/03/15 03:35:42;;;;;;;17.90;7.83;;;;;;;5.15;74.64;100422.66;6167389;28;20322;-53
2021/03/15 03:39:05;;;;;;;15.87;7.33;;;;;;;5.17;74.64;100422.69;6152013;28;20274;-56
2021/03/15 03:42:27;;;;;;;13.97;7.80;;;;;;;5.33;73.84;100422.81;6162245;28;20333;-56
2021/03/15 03:45:47;;;;;;;17.63;8.57;;;;;;;5.09;74.24;100418.31;6165547;28;20245;-53
2021/03/15 03:49:10;;;;;;;9.80;6.97;;;;;;;4.97;75.01;100418.25;6164127;28;20226;-54
2021/03/15 03:52:31;;;;;;;14.97;6.27;;;;;;;5.07;74.68;100425.19;6159125;28;20239;-54
2021/03/15 03:55:58;;;;;;;13.93;6.13;;;;;;;5.05;74.37;100415.72;6171771;28;20234;-53
2021/03/15 03:59:22;;;;;;;17.37;6.23;;;;;;;4.99;75.75;100415.69;6167659;28;20231;-54
2021/03/15 04:02:45;;;;;;;10.47;5.73;;;;;;;5.24;74.15;100412.41;6167784;28;20235;-55
2021/03/15 04:06:10;;;;;;;10.57;5.03;;;;;;;4.84;75.78;100422.44;6167411;28;20247;-54
2021/03/15 04:09:33;;;;;;;11.10;6.50;;;;;;;5.37;73.16;100420.22;6160193;28;20534;-57
2021/03/15 04:12:57;;;;;;;17.00;6.70;;;;;;;4.95;74.42;100411.38;6168873;28;20234;-57
2021/03/15 04:16:25;;;;;;;8.73;5.40;;;;;;;4.89;74.71;100425.06;6169115;28;20230;-56
2021/03/15 04:19:51;;;;;;;9.77;5.77;;;;;;;5.08;74.39;100416.63;6175981;28;20316;-55
2021/03/15 04:23:14;;;;;;;13.90;6.83;;;;;;;4.95;74.40;100419.09;6165097;28;20619;-56
2021/03/15 04:26:35;;;;;;;12.00;6.20;;;;;;;4.93;74.34;100413.94;6166690;28;20231;-55
2021/03/15 04:29:58;;;;;;;12.70;6.67;;;;;;;4.94;74.62;100415.63;6167099;28;20238;-55
2021/03/15 04:33:20;;;;;;;14.90;6.77;;;;;;;5.02;74.88;100410.53;6165919;28;20226;-53
2021/03/15 04:36:43;;;;;;;14.23;7.87;;;;;;;4.82;75.34;100415.56;6161758;28;20231;-55
2021/03/15 04:40:05;;;;;;;7.83;7.03;;;;;;;5.12;73.95;100422.66;6172821;28;20235;-55
2021/03/15 04:43:26;;;;;;;8.07;6.37;;;;;;;4.84;74.70;100432.75;6165497;28;20257;-54
2021/03/15 04:46:47;;;;;;;9.23;5.43;;;;;;;4.59;75.41;100436.00;6157869;28;20238;-52
2021/03/15 04:50:11;;;;;;;6.63;5.03;;;;;;;4.66;74.71;100427.47;6161240;28;20239;-57
2021/03/15 04:53:33;;;;;;;12.10;5.30;;;;;;;4.52;75.37;100414.44;6167998;28;20234;-57
2021/03/15 04:56:55;;;;;;;8.37;5.43;;;;;;;4.96;74.04;100434.56;6161663;28;20246;-54
2021/03/15 05:00:17;;;;;;;6.37;4.93;;;;;;;4.74;74.89;100425.81;6167534;28;20615;-57
2021/03/15 05:03:38;;;;;;;6.90;4.80;;;;;;;4.71;75.10;100426.66;6169628;28;20238;-51
2021/03/15 05:07:00;;;;;;;13.43;5.67;;;;;;;4.91;73.88;100424.22;6176697;28;20620;-57
2021/03/15 05:10:22;;;;;;;5.83;4.70;;;;;;;4.68;74.23;100421.47;6167641;28;20250;-54
2021/03/15 05:13:44;;;;;;;11.43;4.50;;;;;;;5.01;73.89;100408.81;6168211;28;20223;-55
2021/03/15 05:17:05;;;;;;;7.80;4.80;;;;;;;4.49;75.55;100412.69;6157704;28;20292;-53
2021/03/15 05:20:27;;;;;;;10.50;4.67;;;;;;;4.71;75.13;100407.72;6168487;28;20230;-56
2021/03/15 05:23:48;;;;;;;7.27;4.80;;;;;;;4.65;75.17;100402.50;6157476;28;20509;-57
2021/03/15 05:27:11;;;;;;;5.23;4.73;;;;;;;4.95;73.80;100395.88;6174170;28;20321;-57
2021/03/15 05:30:34;;;;;;;5.53;4.97;;;;;;;4.57;75.91;100397.28;6167174;28;20266;-54
2021/03/15 05:33:55;;;;;;;7.57;5.30;;;;;;;4.79;74.94;100408.66;6164504;28;20231;-52
2021/03/15 05:37:17;;;;;;;8.10;4.70;;;;;;;4.50;75.70;100401.53;6165482;28;20242;-56
2021/03/15 05:40:42;;;;;;;9.67;5.57;;;;;;;4.89;74.48;100387.22;6167165;28;20529;-56
2021/03/15 05:44:20;;;;;;;6.40;4.13;;;;;;;5.09;74.07;100391.66;6164888;28;20283;-52
2021/03/15 05:48:17;;;;;;;6.87;4.83;;;;;;;5.33;73.40;100399.56;6165468;28;20226;-52
2021/03/15 05:52:18;;;;;;;8.50;4.30;;;;;;;5.05;73.36;100389.91;6164236;28;20226;-55
2021/03/15 05:56:14;;;;;;;8.13;4.13;;;;;;;5.09;73.92;100389.06;6154467;28;20222;-56
2021/03/15 06:00:12;;;;;;;8.40;4.30;;;;;;;4.92;73.57;100396.69;6163274;28;20516;-56
2021/03/15 06:03:53;;;;;;;7.30;4.50;;;;;;;5.12;73.61;100389.13;6170802;28;20234;-57
2021/03/15 06:07:17;;;;;;;6.70;3.90;;;;;;;4.94;73.77;100387.25;6167549;28;20227;-59
2021/03/15 06:10:47;;;;;;;6.47;4.80;;;;;;;4.68;75.23;100387.06;6164639;28;20239;-57
2021/03/15 06:14:08;;;;;;;5.67;4.27;;;;;;;5.06;73.38;100384.78;6165569;28;20226;-58
2021/03/15 06:17:31;;;;;;;7.77;4.83;;;;;;;4.77;74.78;100384.56;6167677;28;20234;-54
2021/03/15 06:20:51;;;;;;;7.67;4.40;;;;;;;5.01;74.60;100372.69;6165068;28;20230;-57
2021/03/15 06:24:12;;;;;;;7.70;4.70;;;;;;;5.02;73.66;100366.66;6165196;28;20604;-55
2021/03/15 06:27:33;;;;;;;8.63;5.23;;;;;;;5.07;73.49;100377.88;6164532;28;20635;-54
2021/03/15 06:30:55;;;;;;;10.63;4.70;;;;;;;4.76;74.67;100375.09;6166493;28;20230;-54
2021/03/15 06:34:16;;;;;;;7.30;4.30;;;;;;;4.82;74.56;100363.94;6169612;28;20234;-56
2021/03/15 06:37:36;;;;;;;8.50;4.50;;;;;;;5.22;72.70;100372.81;6164263;28;20600;-55
2021/03/15 06:40:58;;;;;;;10.17;5.27;;;;;;;5.26;73.05;100369.41;6164567;28;20242;-57
2021/03/15 06:44:19;;;;;;;12.33;6.40;;;;;;;5.10;73.09;100359.84;6167011;28;20242;-56
2021/03/15 06:47:41;;;;;;;13.53;5.77;;;;;;;5.24;73.05;100355.63;6167263;28;20234;-56
2021/03/15 06:51:01;;;;;;;12.00;5.67;;;;;;;5.27;72.94;100368.56;6162506;28;20234;-57
2021/03/15 06:54:25;;;;;;;13.70;6.37;;;;;;;4.86;75.41;100363.97;6163814;28;20231;-58
2021/03/15 06:57:45;;;;;;;9.40;5.27;;;;;;;5.39;74.25;100349.66;6166122;28;20600;-56
2021/03/15 07:01:17;;;;;;;14.77;6.70;;;;;;;5.16;75.28;100344.38;6168118;28;20251;-57
2021/03/15 07:04:38;;;;;;;9.90;5.57;;;;;;;5.36;74.92;100357.38;6164422;28;20234;-55
2021/03/15 07:08:00;;;;;;;16.87;6.83;;;;;;;5.22;76.48;100357.31;6166637;28;20325;-56
2021/03/15 07:11:23;;;;;;;11.20;5.43;;;;;;;4.98;77.11;100358.03;6154874;28;20230;-57
2021/03/15 07:14:43;;;;;;;13.10;6.53;;;;;;;5.08;77.33;100358.97;6165804;28;20238;-57
2021/03/15 07:18:14;;;;;;;10.80;5.40;;;;;;;5.11;76.31;100349.50;6162059;28;20230;-56
2021/03/15 07:21:38;;;;;;;13.67;6.43;;;;;;;5.27;76.27;100347.91;6164824;28;20253;-56
2021/03/15 07:25:11;;;;;;;9.03;6.00;;;;;;;5.36;75.65;100343.63;6163703;28;20234;-58
2021/03/15 07:28:31;;;;;;;13.82;6.85;;;;;;;5.43;75.51;100340.19;6161791;28;20715;-53
2021/03/15 07:31:52;;;;;;;6.87;4.40;;;;;;;5.30;75.53;100334.97;6167442;28;20343;-56
2021/03/15 07:35:24;;;;;;;6.80;4.53;;;;;;;5.58;75.51;100337.69;6167709;28;20253;-57
2021/03/15 07:38:45;;;;;;;9.87;4.93;;;;;;;5.50;75.68;100342.81;6155850;28;20666;-57
2021/03/15 07:42:06;;;;;;;10.77;4.73;;;;;;;5.39;77.44;100346.19;6169063;28;22137;-53
2021/03/15 07:45:31;;;;;;;6.90;3.93;;;;;;;5.03;77.16;100363.25;6165302;28;20234;-54
2021/03/15 07:48:52;;;;;;;6.67;3.90;;;;;;;4.87;77.62;100347.66;6168381;28;20699;-55
2021/03/15 07:52:13;;;;;;;6.23;3.60;;;;;;;5.08;77.36;100346.06;6167712;28;20247;-55
2021/03/15 07:55:40;;;;;;;7.93;4.03;;;;;;;5.32;76.17;100340.16;6169900;28;20600;-55
2021/03/15 07:59:00;;;;;;;8.27;3.97;;;;;;;5.05;77.99;100352.06;6168835;28;20237;-56
2021/03/15 08:02:23;;;;;;;9.33;4.53;;;;;;;5.53;76.41;100341.97;6165005;28;20230;-58
2021/03/15 08:05:44;;;;;;;9.97;6.37;;;;;;;5.32;77.93;100341.00;6165998;28;20226;-57
2021/03/15 08:09:06;;;;;;;10.23;5.50;;;;;;;5.33;78.27;100360.84;6159348;28;20596;-56
2021/03/15 08:12:31;;;;;;;7.60;4.20;;;;;;;5.43;78.16;100345.34;6170666;28;20247;-55
2021/03/15 08:15:53;;;;;;;10.53;4.67;;;;;;;5.09;79.19;100351.22;6166050;28;20581;-56
2021/03/15 08:19:17;;;;;;;10.80;5.60;;;;;;;5.61;78.11;100360.94;6165289;28;20231;-57
2021/03/15 08:22:39;;;;;;;12.53;5.67;;;;;;;6.00;76.12;100351.63;6156640;28;20314;-55
2021/03/15 08:26:03;;;;;;;11.60;4.90;;;;;;;5.77;77.88;100367.03;6168231;28;20239;-58
2021/03/15 08:29:24;;;;;;;9.20;4.57;;;;;;;5.84;77.23;100347.25;6166362;28;20239;-56
2021/03/15 08:32:45;;;;;;;7.13;4.87;;;;;;;6.26;76.47;100358.56;6170099;28;20234;-55
2021/03/15 08:36:06;;;;;;;8.20;4.87;;;;;;;6.21;75.46;100348.22;6165621;28;20225;-52
2021/03/15 08:39:40;;;;;;;6.97;3.77;;;;;;;5.98;76.66;100345.59;6163331;28;20234;-56
2021/03/15 08:43:39;;;;;;;9.60;4.27;;;;;;;6.72;73.84;100340.47;6165129;28;20264;-56
2021/03/15 08:47:01;;;;;;;8.57;3.90;;;;;;;7.01;72.95;100361.13;6165094;28;20229;-56
2021/03/15 08:50:43;;;;;;;21.07;5.80;;;;;;;6.94;73.12;100358.56;6167324;28;20218;-57
2021/03/15 08:54:05;;;;;;;11.83;4.57;;;;;;;6.65;74.21;100354.25;6165271;28;20230;-56
2021/03/15 08:57:30;;;;;;;11.03;4.63;;;;;;;6.29;75.49;100355.97;6168220;28;20231;-57
2021/03/15 09:00:55;;;;;;;10.20;3.50;;;;;;;6.43;74.81;100351.66;6165972;28;20598;-57
2021/03/15 09:04:34;;;;;;;10.43;5.40;;;;;;;6.09;75.90;100364.56;6168236;28;20253;-59
2021/03/15 09:07:56;;;;;;;13.60;4.90;;;;;;;6.75;74.58;100355.16;6165675;28;20234;-56
2021/03/15 09:11:51;;;;;;;13.40;3.87;;;;;;;6.19;75.16;100356.84;6165349;28;20246;-58
2021/03/15 09:15:11;;;;;;;14.30;5.73;;;;;;;6.65;74.38;100355.13;6166804;28;20511;-57
2021/03/15 09:18:54;;;;;;;10.80;4.47;;;;;;;7.00;74.27;100351.66;6158765;28;20242;-56
2021/03/15 09:22:23;;;;;;;14.63;4.80;;;;;;;7.47;72.96;100353.22;6164465;28;20238;-55
2021/03/15 09:25:44;;;;;;;10.47;5.13;;;;;;;7.79;70.77;100359.16;6159527;28;20266;-61
2021/03/15 09:29:05;;;;;;;9.03;3.37;;;;;;;7.82;70.61;100341.00;6161484;28;20227;-57
2021/03/15 09:32:28;;;;;;;11.63;3.37;;;;;;;8.07;69.11;100346.91;6164715;28;20250;-55
2021/03/15 09:35:48;;;;;;;17.73;4.13;;;;;;;9.08;65.93;100340.03;6167131;28;20222;-59
2021/03/15 09:39:10;;;;;;;16.90;4.33;;;;;;;7.86;68.55;100350.47;6172196;28;20345;-54
2021/03/15 09:42:30;;;;;;;10.27;4.00;;;;;;;7.78;69.45;100340.16;6167590;28;20230;-57
2021/03/15 09:45:54;;;;;;;18.40;4.73;;;;;;;8.19;67.37;100343.38;6160663;28;20258;-57
2021/03/15 09:49:37;;;;;;;6.37;2.83;;;;;;;8.11;67.95;100343.41;6163631;28;20524;-59
2021/03/15 09:53:13;;;;;;;17.27;4.27;;;;;;;7.26;71.02;100343.81;6151298;28;20250;-58
2021/03/15 09:56:43;;;;;;;9.83;3.67;;;;;;;6.69;71.51;100345.66;6157377;28;20234;-56
2021/03/15 10:00:19;;;;;;;9.77;3.13;;;;;;;7.14;71.18;100338.66;6150095;28;20234;-57
2021/03/15 10:03:51;;;;;;;12.07;4.03;;;;;;;7.40;70.48;100348.94;6154674;28;20678;-58
2021/03/15 10:07:30;;;;;;;7.77;3.57;;;;;;;6.76;73.04;100346.50;6160685;28;20616;-52
2021/03/15 10:11:14;;;;;;;15.17;4.23;;;;;;;7.43;71.03;100351.53;6169207;28;20514;-53
2021/03/15 10:14:59;;;;;;;19.97;4.57;;;;;;;7.61;70.14;100340.22;6164062;28;20695;-56
2021/03/15 10:18:29;;;;;;;14.37;3.83;;;;;;;8.76;66.19;100333.44;6147550;28;20234;-55
2021/03/15 10:21:53;;;;;;;19.90;4.80;;;;;;;8.67;66.40;100339.56;6153000;28;20227;-52
2021/03/15 10:25:14;;;;;;;13.70;4.60;;;;;;;8.75;65.80;100339.47;6160843;28;20238;-56
2021/03/15 10:28:34;;;;;;;18.13;4.07;;;;;;;7.68;66.85;100356.63;6160415;28;20238;-57
2021/03/15 10:32:01;;;;;;;11.33;3.80;;;;;;;8.00;65.78;100358.19;6145707;28;20230;-56
2021/03/15 10:35:24;;;;;;;12.97;3.50;;;;;;;8.85;63.34;100337.66;6162053;28;20507;-58
2021/03/15 10:38:54;;;;;;;12.97;3.83;;;;;;;10.17;59.18;100332.56;6147855;28;20257;-52
2021/03/15 10:42:17;;;;;;;17.03;3.93;;;;;;;14.00;47.90;100321.28;6171691;28;20234;-52
2021/03/15 10:45:38;;;;;;;13.73;3.63;;;;;;;15.44;43.43;100312.91;6147239;28;20232;-58
2021/03/15 10:49:19;;;;;;;11.53;4.53;;;;;;;16.78;40.92;100307.59;6158445;28;20604;-59
2021/03/15 10:52:40;;;;;;;18.87;5.33;;;;;;;18.10;37.31;100308.69;6163055;28;20261;-58
2021/03/15 10:56:16;;;;;;;15.87;4.93;;;;;;;12.28;50.16;100316.38;6152819;28;20544;-57
2021/03/15 10:59:40;;;;;;;18.37;6.83;;;;;;;10.97;55.33;100345.19;6149685;28;20222;-57
2021/03/15 11:03:07;;;;;;;13.30;4.43;;;;;;;9.57;59.26;100320.41;6150704;28;20234;-55
2021/03/15 11:06:29;;;;;;;19.27;5.23;;;;;;;9.97;58.52;100325.94;6169597;28;20235;-57
2021/03/15 11:10:05;;;;;;;18.10;4.77;;;;;;;10.11;57.95;100325.72;6164216;28;20237;-56
2021/03/15 11:13:42;;;;;;;18.07;4.00;;;;;;;9.14;59.78;100329.56;6147380;28;20226;-56
2021/03/15 11:17:03;;;;;;;14.17;5.00;;;;;;;8.96;62.14;100329.78;6149144;28;20309;-57
2021/03/15 11:20:35;;;;;;;16.70;4.40;;;;;;;8.91;62.07;100339.34;6149545;28;20230;-55
2021/03/15 11:23:56;;;;;;;14.10;5.07;;;;;;;8.50;62.51;100332.78;6153291;28;20247;-55
2021/03/15 11:27:35;;;;;;;15.40;4.97;;;;;;;9.25;59.91;100335.50;6160946;28;20242;-56
2021/03/15 11:31:00;;;;;;;10.00;3.63;;;;;;;11.48;53.30;100332.91;6149350;28;20226;-52
2021/03/15 11:34:26;;;;;;;19.10;4.53;;;;;;;9.95;56.31;100342.44;6148751;28;20238;-56
2021/03/15 11:37:51;;;;;;;11.80;3.20;;;;;;;9.42;57.19;100344.84;6140539;28;20227;-58
2021/03/15 11:41:21;;;;;;;11.53;3.40;;;;;;;9.37;59.74;100338.84;6152195;28;20246;-58
2021/03/15 11:44:42;;;;;;;12.77;3.43;;;;;;;8.76;63.23;100355.91;6156015;28;20245;-55
2021/03/15 11:48:04;;;;;;;8.70;2.97;;;;;;;8.33;63.22;100367.47;6140381;28;20514;-58
2021/03/15 11:51:41;;;;;;;6.23;2.50;;;;;;;8.79;62.36;100356.75;6159356;28;20238;-57
2021/03/15 11:55:18;;;;;;;13.23;3.20;;;;;;;9.07;61.36;100359.06;6148652;28;20226;-57
2021/03/15 11:58:39;;;;;;;6.10;2.73;;;;;;;9.59;60.51;100361.09;6147902;28;20551;-57
2021/03/15 12:02:00;;;;;;;9.53;2.60;;;;;;;10.12;57.90;100360.41;6142523;28;20227;-56
2021/03/15 12:05:23;;;;;;;11.17;2.90;;;;;;;9.37;60.04;100364.84;6161020;28;20901;-55
2021/03/15 12:08:44;;;;;;;11.60;3.33;;;;;;;8.41;63.31;100376.13;6151179;28;20235;-57
2021/03/15 12:12:05;;;;;;;22.00;5.47;;;;;;;8.07;64.54;100384.06;6160046;28;20239;-56
2021/03/15 12:15:37;;;;;;;9.43;2.23;;;;;;;8.06;64.21;100384.94;6149970;28;20234;-54
2021/03/15 12:19:00;;;;;;;8.73;2.30;;;;;;;8.06;64.36;100394.44;6152578;28;20239;-58
2021/03/15 12:22:24;;;;;;;8.70;3.20;;;;;;;8.37;62.98;100394.25;6155907;28;20227;-53
2021/03/15 12:25:49;;;;;;;3.30;1.40;;;;;;;8.14;61.14;100404.78;6145360;28;20234;-58
2021/03/15 12:29:33;;;;;;;2.80;1.27;;;;;;;8.78;62.20;100409.56;6177447;28;20550;-58
2021/03/15 12:32:54;;;;;;;6.40;1.50;;;;;;;9.10;60.12;100397.16;6166170;28;20591;-58
2021/03/15 12:36:16;;;;;;;3.27;1.53;;;;;;;9.38;58.05;100403.81;6148849;28;20234;-58
2021/03/15 12:39:37;;;;;;;3.93;1.40;;;;;;;9.27;57.26;100406.50;6139625;28;20267;-55
2021/03/15 12:43:03;;;;;;;2.30;1.03;;;;;;;9.78;58.86;100416.34;6155530;28;20250;-57
2021/03/15 12:46:27;;;;;;;2.70;1.07;;;;;;;9.52;56.43;100437.44;6152374;28;20242;-57
2021/03/15 12:49:58;;;;;;;1.00;0.80;;;;;;;9.10;56.36;100424.00;6157007;28;20238;-58
2021/03/15 12:53:21;;;;;;;4.93;1.67;;;;;;;8.68;56.48;100431.25;6154073;28;20602;-54
2021/03/15 12:56:55;;;;;;;5.40;1.73;;;;;;;8.41;56.86;100447.84;6154118;28;20231;-54
2021/03/15 13:00:23;;;;;;;3.60;1.20;;;;;;;9.01;56.50;100456.09;6159905;28;20235;-59
2021/03/15 13:04:07;;;;;;;3.43;1.30;;;;;;;8.20;57.39;100465.28;6153190;28;20250;-54
2021/03/15 13:07:32;;;;;;;5.00;3.20;;;;;;;8.41;57.26;100453.03;6153883;28;20230;-56
2021/03/15 13:10:58;;;;;;;2.67;1.53;;;;;;;8.52;56.92;100460.81;6147590;28;20230;-59
2021/03/15 13:14:19;;;;;;;2.73;1.50;;;;;;;8.24;57.03;100455.75;6148452;28;20230;-57
2021/03/15 13:17:52;;;;;;;4.77;2.63;;;;;;;8.37;57.00;100470.34;6161810;28;20230;-58
2021/03/15 13:21:17;;;;;;;3.47;1.43;;;;;;;7.99;57.68;100471.41;6151866;28;20427;-57
2021/03/15 13:24:38;;;;;;;4.73;1.87;;;;;;;8.35;56.64;100463.47;6150460;28;20234;-56
2021/03/15 13:28:00;;;;;;;6.17;1.87;;;;;;;8.38;56.81;100484.22;6150612;28;20317;-58
2021/03/15 13:31:21;;;;;;;2.83;1.67;;;;;;;8.42;55.99;100484.22;6167935;28;20234;-58
2021/03/15 13:34:47;;;;;;;3.30;1.93;;;;;;;8.40;56.16;100491.09;6161929;28;20227;-57
2021/03/15 13:38:09;;;;;;;7.50;1.43;;;;;;;8.36;55.99;100492.00;6151258;28;20230;-58
2021/03/15 13:41:35;;;;;;;6.60;1.50;;;;;;;8.28;59.54;100501.56;6140109;28;20235;-56
2021/03/15 13:45:06;;;;;;;3.70;1.93;;;;;;;8.22;61.74;100517.13;6139638;28;20230;-57
2021/03/15 13:48:27;;;;;;;3.63;1.67;;;;;;;7.80;62.52;100516.44;6160688;28;20242;-58
2021/03/15 13:51:50;;;;;;;2.30;1.63;;;;;;;8.00;62.30;100529.31;6152908;28;20596;-55
2021/03/15 13:55:22;;;;;;;2.27;0.97;;;;;;;7.53;63.88;100523.38;6135068;28;21041;-56
2021/03/15 13:58:43;;;;;;;1.07;0.73;;;;;;;7.73;61.63;100525.06;6163829;28;20612;-57
2021/03/15 14:02:07;;;;;;;3.43;1.13;;;;;;;8.08;60.96;100533.63;6157430;28;20234;-58
2021/03/15 14:05:32;;;;;;;2.40;1.27;;;;;;;8.39;61.00;100538.69;6152755;28;20235;-58
2021/03/15 14:08:53;;;;;;;3.63;1.40;;;;;;;8.23;60.09;100532.69;6150608;28;20589;-58
2021/03/15 14:12:14;;;;;;;1.63;0.97;;;;;;;8.39;60.07;100543.88;6166456;28;20238;-57
2021/03/15 14:15:43;;;;;;;4.83;3.17;;;;;;;8.47;60.20;100549.06;6148761;28;20234;-56
2021/03/15 14:19:22;;;;;;;2.50;1.20;;;;;;;8.04;60.27;100555.22;6157329;28;20235;-55
2021/03/15 14:22:43;;;;;;;2.97;1.50;;;;;;;8.24;59.71;100556.94;6167485;28;20245;-58
2021/03/15 14:26:06;;;;;;;4.40;1.70;;;;;;;8.32;59.84;100562.06;6138636;28;20576;-58
2021/03/15 14:29:34;;;;;;;2.63;1.10;;;;;;;8.04;59.82;100563.00;6138922;28;20250;-57
2021/03/15 14:33:07;;;;;;;14.83;2.43;;;;;;;8.11;59.19;100561.28;6151399;28;20262;-57
2021/03/15 14:36:39;;;;;;;3.60;1.70;;;;;;;8.39;58.81;100564.63;6161617;28;20222;-55
2021/03/15 14:40:09;;;;;;;1.93;1.63;;;;;;;8.38;58.88;100580.22;6163878;28;20230;-56
2021/03/15 14:43:30;;;;;;;2.60;1.43;;;;;;;7.95;59.86;100583.81;6163298;28;20238;-54
2021/03/15 14:47:13;;;;;;;6.37;1.47;;;;;;;8.11;59.75;100588.97;6159360;28;20257;-59
2021/03/15 14:50:55;;;;;;;5.37;1.50;;;;;;;8.21;59.53;100599.28;6150907;28;20235;-57
2021/03/15 14:54:21;;;;;;;9.03;2.43;;;;;;;8.14;59.80;100599.31;6167536;28;20238;-56
2021/03/15 14:57:53;;;;;;;2.40;1.83;;;;;;;8.17;59.74;100604.50;6148743;28;20262;-57
2021/03/15 15:01:16;;;;;;;8.03;1.77;;;;;;;8.16;59.63;100605.34;6152893;28;20238;-56
2021/03/15 15:04:37;;;;;;;2.83;1.20;;;;;;;8.00;62.25;100615.75;6161513;28;20239;-57
2021/03/15 15:07:58;;;;;;;2.83;1.73;;;;;;;8.44;64.29;100614.81;6135412;28;20246;-59
2021/03/15 15:11:33;;;;;;;5.03;2.10;;;;;;;9.06;62.14;100624.94;6145443;28;20230;-57
2021/03/15 15:14:54;;;;;;;1.50;1.37;;;;;;;9.00;63.89;100627.56;6146419;28;20227;-60
2021/03/15 15:18:15;;;;;;;3.20;1.73;;;;;;;8.97;62.43;100624.97;6145488;28;20226;-58
2021/03/15 15:21:36;;;;;;;2.93;1.40;;;;;;;8.47;60.72;100625.19;6148302;28;20231;-54
2021/03/15 15:24:58;;;;;;;2.30;1.43;;;;;;;8.31;60.96;100627.81;6151080;28;20235;-57
2021/03/15 15:28:18;;;;;;;4.33;2.33;;;;;;;8.38;61.29;100638.16;6165895;28;20268;-58
2021/03/15 15:31:39;;;;;;;7.73;3.77;;;;;;;8.34;60.94;100636.44;6155130;28;20227;-56
2021/03/15 15:34:59;;;;;;;3.30;2.10;;;;;;;7.92;62.40;100643.44;6164445;28;20230;-57
2021/03/15 15:38:19;;;;;;;3.90;2.33;;;;;;;8.15;62.62;100643.41;6161543;28;20317;-57
2021/03/15 15:41:41;;;;;;;10.93;5.37;;;;;;;8.44;63.26;100651.16;6159414;28;20231;-53
2021/03/15 15:45:01;;;;;;;4.03;3.03;;;;;;;8.18;63.08;100658.97;6156164;28;20600;-55
2021/03/15 15:48:21;;;;;;;4.13;2.20;;;;;;;7.75;64.27;100663.31;6158378;28;20242;-53
2021/03/15 15:51:42;;;;;;;5.33;3.93;;;;;;;7.93;63.98;100672.81;6168768;28;20496;-56
2021/03/15 15:55:09;;;;;;;3.70;1.93;;;;;;;7.95;63.87;100671.09;6170528;28;20238;-56
2021/03/15 15:58:32;;;;;;;3.50;1.73;;;;;;;7.61;64.47;100682.31;6167571;28;20230;-57
2021/03/15 16:01:53;;;;;;;4.27;2.27;;;;;;;8.09;63.58;100684.94;6166430;28;20234;-54